createdAt,value
2022-08-17T00:01:51.988Z,3.70
2022-08-17T00:04:20.319Z,3.45
2022-08-17T00:06:49.670Z,3.22
2022-08-17T00:09:18.915Z,3.40
2022-08-17T00:12:42.055Z,3.55
2022-08-17T00:14:36.517Z,3.13
2022-08-17T00:17:04.692Z,3.60
2022-08-17T00:19:32.868Z,3.50
2022-08-17T00:22:31.113Z,3.47
2022-08-17T00:24:52.243Z,3.75
2022-08-17T00:29:46.166Z,3.30
2022-08-17T00:33:23.256Z,3.45
2022-08-17T00:35:08.211Z,3.63
2022-08-17T00:37:35.152Z,3.78
2022-08-17T00:40:02.477Z,3.45
2022-08-17T00:42:31.245Z,3.45
2022-08-17T00:44:58.764Z,3.20
2022-08-17T00:47:25.707Z,3.30
2022-08-17T00:49:52.513Z,3.95
2022-08-17T00:52:24.849Z,3.38
2022-08-17T00:54:53.993Z,3.15
2022-08-17T00:57:28.386Z,3.92
2022-08-17T01:00:02.576Z,3.55
2022-08-17T01:02:42.906Z,3.72
2022-08-17T01:05:20.754Z,3.20
2022-08-17T01:07:50.898Z,3.55
2022-08-17T01:11:00.476Z,3.30
2022-08-17T01:13:13.042Z,3.40
2022-08-17T01:15:46.210Z,3.10
2022-08-17T01:18:14.066Z,3.25
2022-08-17T01:20:53.719Z,3.10
2022-08-17T01:23:23.491Z,3.50
2022-08-17T01:25:52.898Z,3.22
2022-08-17T01:28:53.137Z,3.10
2022-08-17T01:31:09.208Z,3.10
2022-08-17T01:33:38.281Z,3.40
2022-08-17T01:36:07.391Z,3.17
2022-08-17T01:38:38.031Z,3.22
2022-08-17T01:41:12.510Z,3.20
2022-08-17T01:44:01.793Z,3.75
2022-08-17T01:46:32.150Z,3.40
2022-08-17T01:49:05.749Z,3.17
2022-08-17T01:51:33.553Z,3.35
2022-08-17T01:54:07.583Z,3.42
2022-08-17T01:56:36.693Z,3.17
2022-08-17T01:59:04.263Z,3.35
2022-08-17T02:01:34.643Z,3.40
2022-08-17T02:04:02.856Z,3.25
2022-08-17T02:06:31.442Z,3.45
2022-08-17T02:09:17.005Z,3.08
2022-08-17T02:11:44.945Z,3.30
2022-08-17T02:14:13.428Z,3.10
2022-08-17T02:16:43.438Z,3.40
2022-08-17T02:19:13.615Z,3.50
2022-08-17T02:21:44.954Z,3.55
2022-08-17T02:24:17.364Z,3.10
2022-08-17T02:26:44.606Z,2.85
2022-08-17T02:29:16.310Z,3.47
2022-08-17T02:31:43.983Z,3.53
2022-08-17T02:34:11.256Z,3.85
2022-08-17T02:36:40.141Z,3.40
2022-08-17T02:39:15.942Z,3.03
2022-08-17T02:41:42.736Z,3.25
2022-08-17T02:44:09.471Z,3.83
2022-08-17T02:46:36.388Z,3.47
2022-08-17T02:49:04.690Z,3.30
2022-08-17T02:51:31.738Z,3.30
2022-08-17T02:54:02.071Z,3.47
2022-08-17T02:56:45.124Z,3.80
2022-08-17T02:59:11.833Z,3.83
2022-08-17T03:01:40.870Z,3.75
2022-08-17T03:04:10.283Z,3.30
2022-08-17T03:06:37.461Z,3.67
2022-08-17T03:09:04.481Z,3.38
2022-08-17T03:11:33.543Z,3.40
2022-08-17T03:14:00.272Z,3.53
2022-08-17T03:16:29.367Z,3.45
2022-08-17T03:18:56.336Z,3.58
2022-08-17T03:21:23.051Z,3.58
2022-08-17T03:23:49.773Z,3.00
2022-08-17T03:26:23.868Z,3.08
2022-08-17T03:29:01.061Z,3.75
2022-08-17T03:31:27.836Z,3.22
2022-08-17T03:33:54.691Z,3.70
2022-08-17T03:36:21.459Z,3.55
2022-08-17T03:38:48.142Z,3.17
2022-08-17T03:41:19.974Z,3.33
2022-08-17T03:43:46.700Z,3.58
2022-08-17T03:46:34.988Z,3.40
2022-08-17T03:49:25.832Z,3.58
2022-08-17T03:52:12.288Z,3.38
2022-08-17T03:55:02.248Z,3.17
2022-08-17T03:57:29.133Z,3.58
2022-08-17T03:59:56.437Z,3.72
2022-08-17T04:02:32.387Z,3.40
2022-08-17T04:04:59.240Z,3.50
2022-08-17T04:07:29.303Z,3.55
2022-08-17T04:09:57.836Z,3.50
2022-08-17T04:12:30.838Z,3.72
2022-08-17T04:15:01.056Z,3.92
2022-08-17T04:17:29.566Z,3.83
2022-08-17T04:19:59.556Z,3.80
2022-08-17T04:22:31.024Z,3.47
2022-08-17T04:25:06.511Z,3.70
2022-08-17T04:27:33.369Z,3.40
2022-08-17T04:30:00.682Z,3.53
2022-08-17T04:33:03.552Z,3.15
2022-08-17T04:35:24.556Z,3.47
2022-08-17T04:37:53.860Z,3.63
2022-08-17T04:40:41.089Z,3.53
2022-08-17T04:43:10.930Z,3.35
2022-08-17T04:45:55.226Z,3.70
2022-08-17T04:48:36.338Z,3.58
2022-08-17T04:51:14.596Z,3.40
2022-08-17T04:53:44.382Z,3.45
2022-08-17T04:56:16.682Z,3.05
2022-08-17T04:58:49.955Z,3.33
2022-08-17T05:01:23.257Z,3.53
2022-08-17T05:03:54.461Z,3.33
2022-08-17T05:06:23.799Z,3.88
2022-08-17T05:08:53.203Z,3.45
2022-08-17T05:11:23.058Z,3.40
2022-08-17T05:13:50.308Z,3.78
2022-08-17T05:16:18.246Z,3.60
2022-08-17T05:18:45.350Z,3.55
2022-08-17T05:21:12.396Z,3.25
2022-08-17T05:23:43.111Z,3.63
2022-08-17T05:26:21.374Z,3.20
2022-08-17T05:29:00.524Z,3.25
2022-08-17T05:31:30.641Z,3.45
2022-08-17T05:34:02.976Z,3.67
2022-08-17T05:36:42.446Z,3.58
2022-08-17T05:39:16.385Z,3.63
2022-08-17T05:41:43.552Z,3.50
2022-08-17T05:44:12.972Z,3.47
2022-08-17T05:46:43.507Z,3.40
2022-08-17T05:49:11.134Z,3.35
2022-08-17T05:52:10.094Z,3.60
2022-08-17T05:54:48.787Z,3.20
2022-08-17T05:57:39.874Z,2.90
2022-08-17T06:00:30.227Z,3.35
2022-08-17T06:03:00.882Z,3.30
2022-08-17T06:06:06.024Z,3.60
2022-08-17T06:08:52.347Z,3.50
2022-08-17T06:11:59.461Z,3.65
2022-08-17T06:14:38.057Z,3.00
2022-08-17T06:17:10.047Z,3.50
2022-08-17T06:19:54.899Z,3.55
2022-08-17T06:22:26.089Z,3.05
2022-08-17T06:25:25.171Z,3.97
2022-08-17T06:28:00.677Z,4.05
2022-08-17T06:30:57.808Z,3.72
2022-08-17T06:33:32.100Z,3.40
2022-08-17T06:36:17.490Z,3.85
2022-08-17T06:39:02.276Z,5.00
2022-08-17T06:41:28.970Z,3.53
2022-08-17T06:44:43.237Z,3.70
2022-08-17T06:47:28.332Z,3.67
2022-08-17T06:50:01.693Z,4.07
2022-08-17T06:52:45.515Z,4.32
2022-08-17T06:55:23.727Z,3.58
2022-08-17T06:57:59.745Z,3.92
2022-08-17T07:00:40.707Z,4.30
2022-08-17T07:03:29.025Z,3.70
2022-08-17T07:06:04.508Z,3.80
2022-08-17T07:08:38.063Z,3.95
2022-08-17T07:11:38.342Z,3.80
2022-08-17T07:14:25.520Z,3.90
2022-08-17T07:16:56.122Z,3.88
2022-08-17T07:19:31.503Z,3.40
2022-08-17T07:22:10.664Z,3.50
2022-08-17T07:25:01.395Z,3.20
2022-08-17T07:27:41.395Z,3.33
2022-08-17T07:30:17.604Z,3.67
2022-08-17T07:33:08.258Z,3.78
2022-08-17T07:35:43.983Z,3.08
2022-08-17T07:38:25.370Z,3.70
2022-08-17T07:41:02.858Z,3.25
2022-08-17T07:43:42.186Z,2.75
2022-08-17T07:46:38.259Z,3.85
2022-08-17T07:49:07.984Z,3.53
2022-08-17T07:51:43.810Z,4.05
2022-08-17T07:54:18.467Z,3.53
2022-08-17T07:56:54.252Z,3.80
2022-08-17T07:59:34.367Z,4.32
2022-08-17T08:02:14.877Z,3.95
2022-08-17T08:05:00.232Z,3.53
2022-08-17T08:07:38.116Z,3.67
2022-08-17T08:10:10.655Z,4.18
2022-08-17T08:12:46.077Z,3.83
2022-08-17T08:15:17.765Z,3.85
2022-08-17T08:18:03.104Z,4.65
2022-08-17T08:20:52.521Z,4.53
2022-08-17T08:23:20.674Z,4.78
2022-08-17T08:25:56.698Z,4.15
2022-08-17T08:28:43.422Z,4.03
2022-08-17T08:31:16.404Z,5.35
2022-08-17T08:34:02.793Z,4.35
2022-08-17T08:36:56.871Z,4.18
2022-08-17T08:39:51.730Z,3.97
2022-08-17T08:42:34.699Z,4.28
2022-08-17T08:45:09.757Z,4.70
2022-08-17T08:47:55.248Z,4.03
2022-08-17T08:50:50.315Z,4.38
2022-08-17T08:53:29.135Z,4.40
2022-08-17T08:56:06.664Z,4.18
2022-08-17T08:58:52.217Z,4.30
2022-08-17T09:01:44.956Z,5.20
2022-08-17T09:05:12.946Z,4.10
2022-08-17T09:08:04.947Z,4.50
2022-08-17T09:10:49.780Z,4.95
2022-08-17T09:13:22.721Z,4.80
2022-08-17T09:16:23.082Z,5.63
2022-08-17T09:19:03.059Z,5.47
2022-08-17T09:21:54.426Z,5.47
2022-08-17T09:24:47.516Z,5.15
2022-08-17T09:27:15.641Z,6.45
2022-08-17T09:29:58.039Z,6.20
2022-08-17T09:32:34.020Z,6.57
2022-08-17T09:35:08.248Z,6.50
2022-08-17T09:37:55.785Z,6.15
2022-08-17T09:40:27.044Z,6.28
2022-08-17T09:43:12.772Z,6.78
2022-08-17T09:45:55.023Z,7.07
2022-08-17T09:48:44.468Z,6.28
2022-08-17T09:51:25.064Z,6.55
2022-08-17T09:53:53.061Z,6.57
2022-08-17T09:57:25.912Z,7.22
2022-08-17T10:00:09.704Z,7.38
2022-08-17T10:03:01.528Z,7.15
2022-08-17T10:06:09.735Z,7.38
2022-08-17T10:08:51.832Z,7.15
2022-08-17T10:11:33.640Z,7.45
2022-08-17T10:14:37.437Z,8.10
2022-08-17T10:17:04.100Z,7.60
2022-08-17T10:19:45.034Z,6.72
2022-08-17T10:22:39.310Z,8.13
2022-08-17T10:25:48.676Z,7.50
2022-08-17T10:28:28.840Z,7.45
2022-08-17T10:31:23.299Z,8.05
2022-08-17T10:33:59.014Z,7.40
2022-08-17T10:36:28.790Z,7.10
2022-08-17T10:39:28.087Z,7.47
2022-08-17T10:42:00.587Z,7.72
2022-08-17T10:44:39.481Z,7.97
2022-08-17T10:47:07.683Z,7.90
2022-08-17T10:49:56.012Z,8.15
2022-08-17T10:52:22.907Z,7.53
2022-08-17T10:54:51.848Z,8.65
2022-08-17T10:57:33.965Z,8.20
2022-08-17T11:00:03.491Z,7.95
2022-08-17T11:02:41.321Z,8.30
2022-08-17T11:05:23.933Z,7.10
2022-08-17T11:08:08.857Z,7.47
2022-08-17T11:11:23.433Z,7.57
2022-08-17T11:14:14.110Z,7.70
2022-08-17T11:17:05.506Z,7.18
2022-08-17T11:19:59.771Z,6.93
2022-08-17T11:22:50.890Z,7.22
2022-08-17T11:25:20.932Z,7.40
2022-08-17T11:27:53.747Z,7.70
2022-08-17T11:30:43.577Z,8.07
2022-08-17T11:33:29.564Z,8.68
2022-08-17T11:36:04.078Z,9.00
2022-08-17T11:38:57.872Z,8.95
2022-08-17T11:41:29.093Z,8.15
2022-08-17T11:44:02.021Z,7.72
2022-08-17T11:46:57.380Z,8.57
2022-08-17T11:50:11.895Z,9.88
2022-08-17T11:52:47.565Z,8.85
2022-08-17T11:55:36.294Z,9.90
2022-08-17T11:58:23.978Z,9.55
2022-08-17T12:00:57.180Z,9.65
2022-08-17T12:03:31.991Z,10.60
2022-08-17T12:06:30.445Z,9.85
2022-08-17T12:09:00.813Z,10.27
2022-08-17T12:11:57.795Z,10.18
2022-08-17T12:15:08.979Z,9.65
2022-08-17T12:17:50.251Z,9.90
2022-08-17T12:23:07.337Z,9.75
2022-08-17T12:25:49.347Z,9.00
2022-08-17T12:28:32.028Z,9.68
2022-08-17T12:31:02.451Z,9.35
2022-08-17T12:33:31.812Z,9.80
2022-08-17T12:36:03.185Z,8.70
2022-08-17T12:38:39.653Z,9.38
2022-08-17T12:41:27.142Z,7.90
2022-08-17T12:44:09.528Z,8.75
2022-08-17T12:46:58.810Z,9.38
2022-08-17T12:49:32.817Z,8.40
2022-08-17T12:52:05.786Z,8.82
2022-08-17T12:55:00.389Z,8.77
2022-08-17T12:57:39.054Z,8.93
2022-08-17T13:00:31.159Z,8.75
2022-08-17T13:03:20.924Z,9.75
2022-08-17T13:06:09.415Z,8.52
2022-08-17T13:08:45.985Z,8.68
2022-08-17T13:11:18.508Z,9.23
2022-08-17T13:13:51.228Z,9.23
2022-08-17T13:16:21.225Z,9.60
2022-08-17T13:18:54.757Z,9.68
2022-08-17T13:21:26.895Z,9.55
2022-08-17T13:23:59.670Z,9.43
2022-08-17T13:26:42.919Z,11.82
2022-08-17T13:29:32.418Z,8.90
2022-08-17T13:32:13.178Z,9.50
2022-08-17T13:34:56.163Z,8.90
2022-08-17T13:37:35.303Z,9.35
2022-08-17T13:40:02.404Z,8.52
2022-08-17T13:42:53.119Z,11.25
2022-08-17T13:45:39.317Z,8.60
2022-08-17T13:48:28.233Z,11.00
2022-08-17T13:50:54.913Z,9.32
2022-08-17T13:53:36.946Z,9.25
2022-08-17T13:56:37.293Z,8.27
2022-08-17T13:59:53.421Z,8.40
2022-08-17T14:02:17.747Z,8.95
2022-08-17T14:04:46.074Z,9.00
2022-08-17T14:07:12.995Z,9.00
2022-08-17T14:10:00.803Z,8.60
2022-08-17T14:12:30.384Z,8.43
2022-08-17T14:15:00.897Z,8.43
2022-08-17T14:17:34.986Z,8.43
2022-08-17T14:20:09.330Z,8.00
2022-08-17T14:22:38.128Z,9.60
2022-08-17T14:25:08.722Z,8.15
2022-08-17T14:27:52.068Z,8.13
2022-08-17T14:30:25.294Z,8.23
2022-08-17T14:32:56.411Z,8.13
2022-08-17T14:35:23.955Z,8.75
2022-08-17T14:37:52.356Z,8.80
2022-08-17T14:40:24.412Z,8.05
2022-08-17T14:42:57.601Z,8.65
2022-08-17T14:45:30.044Z,8.73
2022-08-17T14:47:59.348Z,8.55
2022-08-17T14:50:27.175Z,7.72
2022-08-17T14:52:56.089Z,7.82
2022-08-17T14:55:25.080Z,7.63
2022-08-17T14:57:54.352Z,7.88
2022-08-17T15:00:23.282Z,8.20
2022-08-17T15:02:55.995Z,7.88
2022-08-17T15:05:31.253Z,8.15
2022-08-17T15:08:01.003Z,8.27
2022-08-17T15:10:29.280Z,7.78
2022-08-17T15:12:57.242Z,8.43
2022-08-17T15:15:24.508Z,8.07
2022-08-17T15:17:51.939Z,8.30
2022-08-17T15:20:24.728Z,7.70
2022-08-17T15:22:58.837Z,8.73
2022-08-17T15:25:28.795Z,7.68
2022-08-17T15:27:58.124Z,8.20
2022-08-17T15:30:26.541Z,8.38
2022-08-17T15:32:55.529Z,8.18
2022-08-17T15:35:28.959Z,8.15
2022-08-17T15:38:11.546Z,7.57
2022-08-17T15:40:42.806Z,6.82
2022-08-17T15:43:11.582Z,6.32
2022-08-17T15:45:39.372Z,6.90
2022-08-17T15:48:06.290Z,6.47
2022-08-17T15:50:33.065Z,5.70
2022-08-17T15:53:02.059Z,6.30
2022-08-17T15:55:31.068Z,6.40
2022-08-17T15:58:00.568Z,7.85
2022-08-17T16:00:29.360Z,8.57
2022-08-17T16:03:44.255Z,7.20
2022-08-17T16:05:46.926Z,6.63
2022-08-17T16:08:20.026Z,6.68
2022-08-17T16:10:47.115Z,6.80
2022-08-17T16:13:17.801Z,6.85
2022-08-17T16:15:49.752Z,6.90
2022-08-17T16:18:30.789Z,6.80
2022-08-17T16:21:21.016Z,6.65
2022-08-17T16:23:49.663Z,6.28
2022-08-17T16:26:16.734Z,6.25
2022-08-17T16:28:43.614Z,6.60
2022-08-17T16:31:10.943Z,6.38
2022-08-17T16:33:40.889Z,6.78
2022-08-17T16:36:08.513Z,6.65
2022-08-17T16:38:36.622Z,6.68
2022-08-17T16:41:05.073Z,6.65
2022-08-17T16:43:34.715Z,6.10
2022-08-17T16:46:01.594Z,6.13
2022-08-17T16:48:29.910Z,6.38
2022-08-17T16:51:02.046Z,6.40
2022-08-17T16:53:33.206Z,6.00
2022-08-17T16:55:59.943Z,7.43
2022-08-17T16:58:30.093Z,6.90
2022-08-17T17:00:59.289Z,6.43
2022-08-17T17:03:28.475Z,6.32
2022-08-17T17:06:06.587Z,5.38
2022-08-17T17:08:46.618Z,5.70
2022-08-17T17:11:21.547Z,5.50
2022-08-17T17:14:01.499Z,5.05
2022-08-17T17:16:33.826Z,5.57
2022-08-17T17:19:11.170Z,5.65
2022-08-17T17:21:46.362Z,6.60
2022-08-17T17:24:23.087Z,6.05
2022-08-17T17:27:17.636Z,6.00
2022-08-17T17:29:56.296Z,5.60
2022-08-17T17:32:31.007Z,5.70
2022-08-17T17:35:07.028Z,5.40
2022-08-17T17:37:35.406Z,5.68
2022-08-17T17:40:19.096Z,5.90
2022-08-17T17:42:46.564Z,5.20
2022-08-17T17:45:16.768Z,5.97
2022-08-17T17:47:47.011Z,5.65
2022-08-17T17:50:17.266Z,5.65
2022-08-17T17:52:52.646Z,5.63
2022-08-17T17:55:28.400Z,5.75
2022-08-17T17:58:20.623Z,5.43
2022-08-17T18:01:17.735Z,5.80
2022-08-17T18:04:20.378Z,5.72
2022-08-17T18:07:09.938Z,6.15
2022-08-17T18:09:51.999Z,5.35
2022-08-17T18:12:56.355Z,5.85
2022-08-17T18:15:52.224Z,6.05
2022-08-17T18:18:19.432Z,6.28
2022-08-17T18:20:56.042Z,6.20
2022-08-17T18:23:29.103Z,6.28
2022-08-17T18:25:56.260Z,6.78
2022-08-17T18:28:36.395Z,6.53
2022-08-17T18:31:20.171Z,5.90
2022-08-17T18:33:50.597Z,6.50
2022-08-17T18:36:38.170Z,5.68
2022-08-17T18:39:20.962Z,6.13
2022-08-17T18:41:52.888Z,6.13
2022-08-17T18:44:42.966Z,5.80
2022-08-17T18:47:23.748Z,5.53
2022-08-17T18:50:00.202Z,6.10
2022-08-17T18:52:37.762Z,5.80
2022-08-17T18:55:11.841Z,5.80
2022-08-17T18:57:44.475Z,6.85
2022-08-17T19:00:40.260Z,5.88
2022-08-17T19:03:15.987Z,5.78
2022-08-17T19:05:54.085Z,5.68
2022-08-17T19:08:32.439Z,6.30
2022-08-17T19:11:16.167Z,6.65
2022-08-17T19:13:57.760Z,6.30
2022-08-17T19:16:50.206Z,6.00
2022-08-17T19:19:24.974Z,6.40
2022-08-17T19:21:59.006Z,6.85
2022-08-17T19:24:27.966Z,6.60
2022-08-17T19:27:07.974Z,6.88
2022-08-17T19:29:44.032Z,7.22
2022-08-17T19:32:19.295Z,7.68
2022-08-17T19:34:49.278Z,7.40
2022-08-17T19:37:36.989Z,7.15
2022-08-17T19:40:52.195Z,7.75
2022-08-17T19:43:47.920Z,6.88
2022-08-17T19:46:35.596Z,7.70
2022-08-17T19:49:22.054Z,7.35
2022-08-17T19:52:10.918Z,8.15
2022-08-17T19:54:55.565Z,6.85
2022-08-17T19:57:45.836Z,6.22
2022-08-17T20:00:18.147Z,6.78
2022-08-17T20:02:47.875Z,6.95
2022-08-17T20:05:21.298Z,6.93
2022-08-17T20:08:03.703Z,7.10
2022-08-17T20:10:34.231Z,6.53
2022-08-17T20:13:06.489Z,6.82
2022-08-17T20:15:36.038Z,6.80
2022-08-17T20:18:16.067Z,7.43
2022-08-17T20:20:48.822Z,8.13
2022-08-17T20:23:50.186Z,7.70
2022-08-17T20:26:36.830Z,7.13
2022-08-17T20:29:16.825Z,7.53
2022-08-17T20:31:54.709Z,7.00
2022-08-17T20:34:34.873Z,6.32
2022-08-17T20:37:15.412Z,7.00
2022-08-17T20:40:09.123Z,7.28
2022-08-17T20:42:39.107Z,6.72
2022-08-17T20:45:20.816Z,7.90
2022-08-17T20:48:22.171Z,6.78
2022-08-17T20:50:50.582Z,7.50
2022-08-17T20:53:48.156Z,6.97
2022-08-17T20:56:49.322Z,6.95
2022-08-17T20:59:24.025Z,6.78
2022-08-17T21:02:08.929Z,6.95
2022-08-17T21:04:49.988Z,7.30
2022-08-17T21:07:43.236Z,6.75
2022-08-17T21:10:18.224Z,7.35
2022-08-17T21:13:21.831Z,7.18
2022-08-17T21:15:57.442Z,7.10
2022-08-17T21:18:44.385Z,6.93
2022-08-17T21:21:17.911Z,7.38
2022-08-17T21:24:22.580Z,7.63
2022-08-17T21:27:20.068Z,7.60
2022-08-17T21:30:14.903Z,7.68
2022-08-17T21:32:44.095Z,7.22
2022-08-17T21:35:12.900Z,7.55
2022-08-17T21:37:44.529Z,7.82
2022-08-17T21:40:11.291Z,7.88
2022-08-17T21:43:07.880Z,7.95
2022-08-17T21:45:38.037Z,7.55
2022-08-17T21:48:19.702Z,7.38
2022-08-17T21:51:08.925Z,8.40
2022-08-17T21:53:54.090Z,7.88
2022-08-17T21:56:36.346Z,7.45
2022-08-17T21:59:07.604Z,7.50
2022-08-17T22:01:45.624Z,7.63
2022-08-17T22:04:33.701Z,8.05
2022-08-17T22:07:04.431Z,7.88
2022-08-17T22:09:43.988Z,8.18
2022-08-17T22:12:20.651Z,7.72
2022-08-17T22:15:06.023Z,8.48
2022-08-17T22:17:35.533Z,8.27
2022-08-17T22:23:08.858Z,7.78
2022-08-17T22:25:39.634Z,7.88
2022-08-17T22:28:09.023Z,8.02
2022-08-17T22:30:41.599Z,7.68
2022-08-17T22:33:48.973Z,7.03
2022-08-17T22:36:24.501Z,7.93
2022-08-17T22:38:58.491Z,8.00
2022-08-17T22:41:34.303Z,8.02
2022-08-17T22:44:20.978Z,7.65
2022-08-17T22:47:14.006Z,8.10
2022-08-17T22:49:56.558Z,8.20
2022-08-17T22:52:35.087Z,8.23
2022-08-17T22:55:35.481Z,8.80
2022-08-17T22:58:28.145Z,7.82
2022-08-17T23:00:57.312Z,7.75
2022-08-17T23:03:27.152Z,7.95
2022-08-17T23:06:09.604Z,8.40
2022-08-17T23:09:05.604Z,7.60
2022-08-17T23:11:58.471Z,8.05
2022-08-17T23:14:32.626Z,8.20
2022-08-17T23:17:01.676Z,7.63
2022-08-17T23:19:31.676Z,7.85
2022-08-17T23:21:59.560Z,8.18
2022-08-17T23:24:29.831Z,8.18
2022-08-17T23:26:58.069Z,8.50
2022-08-17T23:29:27.596Z,7.82
2022-08-17T23:34:21.424Z,8.27
2022-08-17T23:36:52.877Z,8.10
2022-08-17T23:39:27.351Z,7.60
2022-08-17T23:42:07.908Z,7.88
2022-08-17T23:44:39.244Z,7.80
2022-08-17T23:47:07.783Z,7.97
2022-08-17T23:49:34.747Z,7.43
2022-08-17T23:52:05.902Z,7.53
2022-08-17T23:54:43.559Z,7.72
2022-08-17T23:57:19.042Z,7.95
2022-08-17T23:59:46.116Z,8.13
